createdAt,value
2022-10-14T00:00:14.170Z,95711
2022-10-14T00:01:16.444Z,95707.1
2022-10-14T00:02:19.167Z,95704
2022-10-14T00:03:21.532Z,95703.6
2022-10-14T00:04:23.723Z,95700.2
2022-10-14T00:05:25.645Z,95701.5
2022-10-14T00:06:27.852Z,95699.7
2022-10-14T00:07:30.057Z,95702.1
2022-10-14T00:08:31.980Z,95701.9
2022-10-14T00:09:34.460Z,95702
2022-10-14T00:10:36.925Z,95701.3
2022-10-14T00:11:38.866Z,95702.2
2022-10-14T00:12:41.358Z,95697.8
2022-10-14T00:13:43.830Z,95702.9
2022-10-14T00:14:46.299Z,95703.3
2022-10-14T00:15:48.217Z,95703.3
2022-10-14T00:16:50.473Z,95697.9
2022-10-14T00:17:52.955Z,95700.9
2022-10-14T00:18:55.431Z,95703.1
2022-10-14T00:19:57.905Z,95705.7
2022-10-14T00:21:00.376Z,95704.9
2022-10-14T00:22:02.014Z,95706.2
2022-10-14T00:23:04.502Z,95707.8
2022-10-14T00:24:06.441Z,95702
2022-10-14T00:25:08.920Z,95707.1
2022-10-14T00:26:11.112Z,95707.8
2022-10-14T00:27:13.315Z,95706
2022-10-14T00:28:15.751Z,95709.4
2022-10-14T00:29:18.317Z,95712.3
2022-10-14T00:30:20.954Z,95711.6
2022-10-14T00:31:23.193Z,95709.6
2022-10-14T00:32:25.719Z,95712.8
2022-10-14T00:33:28.216Z,95709.4
2022-10-14T00:34:32.157Z,95710.5
2022-10-14T00:35:34.335Z,95709.8
2022-10-14T00:36:36.520Z,95708.1
2022-10-14T00:37:38.998Z,95707.7
2022-10-14T00:38:41.476Z,95708.2
2022-10-14T00:39:43.952Z,95705.4
2022-10-14T00:40:46.416Z,95706.8
2022-10-14T00:41:48.611Z,95706.5
2022-10-14T00:42:50.504Z,95708.7
2022-10-14T00:43:52.997Z,95706.3
2022-10-14T00:44:55.461Z,95705.7
2022-10-14T00:45:57.944Z,95702.9
2022-10-14T00:47:00.114Z,95705.6
2022-10-14T00:48:02.394Z,95707
2022-10-14T00:49:04.866Z,95704.2
2022-10-14T00:50:06.679Z,95708.9
2022-10-14T00:51:09.228Z,95706.9
2022-10-14T00:52:11.702Z,95707.3
2022-10-14T00:53:13.891Z,95705.6
2022-10-14T00:54:16.098Z,95705.1
2022-10-14T00:55:18.565Z,95706.6
2022-10-14T00:56:21.035Z,95706.3
2022-10-14T00:57:24.803Z,95702.7
2022-10-14T00:58:27.270Z,95703.5
2022-10-14T00:59:29.458Z,95703.8
2022-10-14T01:00:32.211Z,95705
2022-10-14T01:01:34.494Z,95703
2022-10-14T01:02:36.997Z,95706.4
2022-10-14T01:03:39.527Z,95704.1
2022-10-14T01:04:42.179Z,95702.4
2022-10-14T01:05:44.639Z,95703.6
2022-10-14T01:06:47.110Z,95701.2
2022-10-14T01:07:49.308Z,95700.6
2022-10-14T01:08:51.777Z,95705.1
2022-10-14T01:09:54.257Z,95703.4
2022-10-14T01:10:56.730Z,95702.3
2022-10-14T01:13:04.185Z,95704.1
2022-10-14T01:14:06.658Z,95701.7
2022-10-14T01:15:09.273Z,95706.1
2022-10-14T01:16:11.198Z,95702.8
2022-10-14T01:17:13.109Z,95705.6
2022-10-14T01:18:15.594Z,95705.8
2022-10-14T01:19:17.838Z,95704.3
2022-10-14T01:20:20.048Z,95702.8
2022-10-14T01:21:22.237Z,95704.9
2022-10-14T01:22:26.756Z,95702.5
2022-10-14T01:23:29.948Z,95702.5
2022-10-14T01:24:31.880Z,95706.8
2022-10-14T01:25:34.570Z,95704.8
2022-10-14T01:26:37.196Z,95705.5
2022-10-14T01:27:39.114Z,95703.2
2022-10-14T01:28:41.892Z,95704.7
2022-10-14T01:29:43.970Z,95705
2022-10-14T01:30:45.890Z,95703
2022-10-14T01:31:48.061Z,95697.1
2022-10-14T01:32:50.270Z,95702.2
2022-10-14T01:33:52.179Z,95699.1
2022-10-14T01:34:54.706Z,95700
2022-10-14T01:35:57.186Z,95703.8
2022-10-14T01:36:59.659Z,95704.8
2022-10-14T01:38:01.576Z,95702.6
2022-10-14T01:39:04.065Z,95701.7
2022-10-14T01:40:05.978Z,95701.8
2022-10-14T01:41:08.450Z,95702.9
2022-10-14T01:42:10.912Z,95698.3
2022-10-14T01:43:13.390Z,95702.3
2022-10-14T01:44:15.850Z,95707.5
2022-10-14T01:45:18.324Z,95706.3
2022-10-14T01:46:20.533Z,95710.8
2022-10-14T01:47:22.731Z,95706.6
2022-10-14T01:48:25.201Z,95706.4
2022-10-14T01:49:27.405Z,95708.6
2022-10-14T01:50:29.934Z,95709.8
2022-10-14T01:51:32.422Z,95707.7
2022-10-14T01:52:34.891Z,95709.2
2022-10-14T01:53:37.068Z,95709
2022-10-14T01:54:39.281Z,95706.2
2022-10-14T01:55:41.754Z,95704.5
2022-10-14T01:56:44.217Z,95705.2
2022-10-14T01:57:46.688Z,95700.2
2022-10-14T01:58:48.882Z,95703.5
2022-10-14T01:59:51.077Z,95702.7
2022-10-14T02:00:53.558Z,95699.9
2022-10-14T02:01:56.177Z,95697.5
2022-10-14T02:02:58.827Z,95694.3
2022-10-14T02:04:01.300Z,95692.9
2022-10-14T02:05:03.765Z,95694.2
2022-10-14T02:06:06.032Z,95699.1
2022-10-14T02:07:08.546Z,95701
2022-10-14T02:08:10.737Z,95700.6
2022-10-14T02:09:13.209Z,95698.8
2022-10-14T02:10:15.387Z,95706.7
2022-10-14T02:11:17.869Z,95704.4
2022-10-14T02:12:21.907Z,95702.6
2022-10-14T02:13:24.754Z,95706
2022-10-14T02:14:26.665Z,95704.7
2022-10-14T02:15:29.159Z,95709.4
2022-10-14T02:16:31.351Z,95703.3
2022-10-14T02:17:33.835Z,95708.1
2022-10-14T02:18:36.029Z,95709.2
2022-10-14T02:19:37.953Z,95709.9
2022-10-14T02:20:40.159Z,95709.9
2022-10-14T02:21:42.430Z,95706.3
2022-10-14T02:22:44.916Z,95703.9
2022-10-14T02:23:47.391Z,95705.8
2022-10-14T02:24:49.852Z,95700.5
2022-10-14T02:25:52.326Z,95697.3
2022-10-14T02:26:54.247Z,95701
2022-10-14T02:27:56.430Z,95697.6
2022-10-14T02:28:58.641Z,95704.5
2022-10-14T02:30:01.381Z,95701.4
2022-10-14T02:31:03.555Z,95705
2022-10-14T02:32:05.764Z,95706.2
2022-10-14T02:33:07.969Z,95704.9
2022-10-14T02:34:09.894Z,95702.2
2022-10-14T02:35:12.085Z,95706
2022-10-14T02:36:14.558Z,95706.8
2022-10-14T02:37:16.514Z,95704.8
2022-10-14T02:38:18.470Z,95708.9
2022-10-14T02:39:20.660Z,95701.5
2022-10-14T02:40:23.132Z,95711.7
2022-10-14T02:41:25.596Z,95707.2
2022-10-14T02:42:27.233Z,95710.3
2022-10-14T02:43:29.463Z,95715.3
2022-10-14T02:44:31.942Z,95716
2022-10-14T02:45:34.140Z,95715.4
2022-10-14T02:46:36.351Z,95710.8
2022-10-14T02:47:38.821Z,95713.2
2022-10-14T02:48:40.747Z,95712
2022-10-14T02:49:43.225Z,95713.2
2022-10-14T02:50:45.704Z,95706.8
2022-10-14T02:51:47.898Z,95710.2
2022-10-14T02:52:50.436Z,95705.7
2022-10-14T02:53:52.924Z,95704
2022-10-14T02:54:55.123Z,95709.4
2022-10-14T02:55:57.325Z,95700.1
2022-10-14T02:56:59.800Z,95705
2022-10-14T02:58:01.766Z,95699.9
2022-10-14T02:59:03.968Z,95709.1
2022-10-14T03:00:06.170Z,95704.2
2022-10-14T03:01:08.635Z,95712.7
2022-10-14T03:02:11.435Z,95708.8
2022-10-14T03:03:13.161Z,95708.1
2022-10-14T03:04:15.384Z,95711.5
2022-10-14T03:05:17.579Z,95711.4
2022-10-14T03:06:20.052Z,95709.2
2022-10-14T03:07:22.240Z,95708.8
2022-10-14T03:08:24.531Z,95707.5
2022-10-14T03:09:26.742Z,95709.8
2022-10-14T03:10:28.650Z,95708.2
2022-10-14T03:11:30.835Z,95709.7
2022-10-14T03:12:33.370Z,95708.8
2022-10-14T03:13:35.832Z,95707.1
2022-10-14T03:14:38.036Z,95701.6
2022-10-14T03:15:40.506Z,95703.2
2022-10-14T03:16:42.976Z,95703.1
2022-10-14T03:17:45.232Z,95704.2
2022-10-14T03:18:47.507Z,95702.7
2022-10-14T03:19:50.030Z,95704.4
2022-10-14T03:20:51.707Z,95704.4
2022-10-14T03:21:53.904Z,95700.3
2022-10-14T03:22:56.392Z,95701
2022-10-14T03:23:58.621Z,95703.2
2022-10-14T03:25:01.141Z,95694.4
2022-10-14T03:26:03.333Z,95698.9
2022-10-14T03:27:05.535Z,95700.2
2022-10-14T03:28:07.473Z,95698.8
2022-10-14T03:29:09.957Z,95697.5
2022-10-14T03:30:12.485Z,95699.1
2022-10-14T03:31:15.045Z,95700.9
2022-10-14T03:32:16.949Z,95697.8
2022-10-14T03:34:24.418Z,95694.4
2022-10-14T03:35:26.635Z,95694.9
2022-10-14T03:36:29.110Z,95690.7
2022-10-14T03:37:31.315Z,95697.4
2022-10-14T03:38:33.781Z,95697.8
2022-10-14T03:39:36.932Z,95695
2022-10-14T03:40:39.324Z,95696.6
2022-10-14T03:41:41.569Z,95697.9
2022-10-14T03:42:43.525Z,95694.3
2022-10-14T03:43:46.071Z,95694.4
2022-10-14T03:44:48.558Z,95695.5
2022-10-14T03:45:50.768Z,95694.2
2022-10-14T03:46:52.971Z,95695.8
2022-10-14T03:47:55.451Z,95689.6
2022-10-14T03:48:57.399Z,95692.9
2022-10-14T03:49:59.901Z,95687.8
2022-10-14T03:51:02.401Z,95693
2022-10-14T03:52:04.604Z,95688.6
2022-10-14T03:53:06.803Z,95686.9
2022-10-14T03:54:08.997Z,95686.7
2022-10-14T03:55:11.528Z,95689.9
2022-10-14T03:56:14.019Z,95687.4
2022-10-14T03:57:16.486Z,95687.7
2022-10-14T03:58:18.959Z,95688.6
2022-10-14T03:59:21.421Z,95689.6
2022-10-14T04:00:23.644Z,95687
2022-10-14T04:01:25.746Z,95683.5
2022-10-14T04:02:28.377Z,95686.2
2022-10-14T04:03:30.856Z,95683
2022-10-14T04:04:33.326Z,95678.9
2022-10-14T04:05:35.574Z,95683.1
2022-10-14T04:06:37.826Z,95686.2
2022-10-14T04:07:39.992Z,95679.5
2022-10-14T04:08:42.488Z,95683.2
2022-10-14T04:09:44.688Z,95682.7
2022-10-14T04:10:47.224Z,95680.8
2022-10-14T04:11:49.428Z,95678.1
2022-10-14T04:12:51.904Z,95679.4
2022-10-14T04:13:54.380Z,95682.4
2022-10-14T04:14:56.848Z,95681.5
2022-10-14T04:15:59.314Z,95679.6
2022-10-14T04:17:01.232Z,95676.4
2022-10-14T04:18:03.406Z,95678.6
2022-10-14T04:19:05.599Z,95674.8
2022-10-14T04:20:08.068Z,95669.9
2022-10-14T04:21:10.553Z,95673.2
2022-10-14T04:22:12.504Z,95675
2022-10-14T04:23:14.986Z,95670.1
2022-10-14T04:24:17.476Z,95674.7
2022-10-14T04:25:19.675Z,95667.5
2022-10-14T04:26:22.200Z,95669.1
2022-10-14T04:27:24.139Z,95666.9
2022-10-14T04:28:26.327Z,95669.3
2022-10-14T04:29:28.884Z,95667
2022-10-14T04:30:31.364Z,95667.5
2022-10-14T04:31:33.830Z,95663.7
2022-10-14T04:32:36.038Z,95663.3
2022-10-14T04:33:38.506Z,95670
2022-10-14T04:34:41.040Z,95665.9
2022-10-14T04:35:43.238Z,95669.6
2022-10-14T04:36:45.423Z,95663.7
2022-10-14T04:37:47.915Z,95665.2
2022-10-14T04:38:49.828Z,95663.2
2022-10-14T04:39:51.746Z,95659.9
2022-10-14T04:40:53.668Z,95660.6
2022-10-14T04:41:56.199Z,95658.1
2022-10-14T04:42:58.687Z,95658
2022-10-14T04:44:01.164Z,95655.8
2022-10-14T04:45:03.633Z,95650.1
2022-10-14T04:46:05.831Z,95650.4
2022-10-14T04:47:07.761Z,95650
2022-10-14T04:48:10.222Z,95649.7
2022-10-14T04:49:12.132Z,95644
2022-10-14T04:50:14.333Z,95640.3
2022-10-14T04:51:16.804Z,95644.2
2022-10-14T04:52:20.068Z,95644.2
2022-10-14T04:53:24.007Z,95642
2022-10-14T04:54:26.219Z,95641.2
2022-10-14T04:55:28.424Z,95640.3
2022-10-14T04:56:30.898Z,95640.5
2022-10-14T04:57:33.157Z,95639.4
2022-10-14T04:58:35.634Z,95638.5
2022-10-14T04:59:38.124Z,95636.2
2022-10-14T05:00:40.047Z,95638.1
2022-10-14T05:01:42.392Z,95637.2
2022-10-14T05:02:44.624Z,95637.1
2022-10-14T05:03:46.548Z,95636.9
2022-10-14T05:04:49.033Z,95633.5
2022-10-14T05:05:51.239Z,95632.7
2022-10-14T05:06:53.711Z,95630.6
2022-10-14T05:07:56.196Z,95634.2
2022-10-14T05:08:58.683Z,95628.3
2022-10-14T05:10:00.882Z,95626.5
2022-10-14T05:11:02.826Z,95632.7
2022-10-14T05:12:05.304Z,95627.2
2022-10-14T05:13:07.556Z,95625.2
2022-10-14T05:14:10.043Z,95629.1
2022-10-14T05:15:12.250Z,95628.8
2022-10-14T05:16:14.767Z,95625.5
2022-10-14T05:17:17.238Z,95629.8
2022-10-14T05:18:19.734Z,95628.6
2022-10-14T05:19:21.968Z,95632.4
2022-10-14T05:20:24.534Z,95628.5
2022-10-14T05:21:26.196Z,95627.3
2022-10-14T05:22:28.670Z,95630
2022-10-14T05:23:30.864Z,95627.1
2022-10-14T05:24:33.060Z,95626.2
2022-10-14T05:25:35.268Z,95622.2
2022-10-14T05:26:37.462Z,95625.1
2022-10-14T05:27:39.950Z,95625.9
2022-10-14T05:28:42.682Z,95628.2
2022-10-14T05:29:45.285Z,95622.9
2022-10-14T05:30:47.751Z,95626.4
2022-10-14T05:31:50.239Z,95622.1
2022-10-14T05:32:52.430Z,95622.9
2022-10-14T05:33:54.904Z,95622.8
2022-10-14T05:34:56.872Z,95623.3
2022-10-14T05:36:00.824Z,95621.1
2022-10-14T05:37:03.288Z,95622.8
2022-10-14T05:38:06.027Z,95618.2
2022-10-14T05:39:08.517Z,95620.6
2022-10-14T05:40:11.073Z,95618.7
2022-10-14T05:41:13.539Z,95618.3
2022-10-14T05:42:15.744Z,95621.5
2022-10-14T05:43:17.933Z,95619
2022-10-14T05:44:20.462Z,95621.2
2022-10-14T05:45:22.682Z,95620.8
2022-10-14T05:46:24.864Z,95620.1
2022-10-14T05:47:27.347Z,95619.3
2022-10-14T05:48:29.830Z,95619
2022-10-14T05:49:32.022Z,95616.4
2022-10-14T05:50:33.950Z,95618.5
2022-10-14T05:51:36.450Z,95618.3
2022-10-14T05:52:38.914Z,95618
2022-10-14T05:53:41.383Z,95615.3
2022-10-14T05:54:43.034Z,95618.3
2022-10-14T05:55:44.981Z,95616.8
2022-10-14T05:56:46.884Z,95613.9
2022-10-14T05:57:48.784Z,95612.3
2022-10-14T05:58:51.104Z,95613.8
2022-10-14T05:59:53.650Z,95613.2
2022-10-14T06:00:55.890Z,95608.6
2022-10-14T06:01:58.115Z,95612.6
2022-10-14T06:03:00.599Z,95611.4
2022-10-14T06:04:03.155Z,95615.8
2022-10-14T06:05:05.368Z,95612
2022-10-14T06:06:07.842Z,95617.5
2022-10-14T06:07:10.058Z,95612.8
2022-10-14T06:08:12.278Z,95616.1
2022-10-14T06:09:13.934Z,95614.5
2022-10-14T06:10:16.443Z,95612.2
2022-10-14T06:11:18.955Z,95610.2
2022-10-14T06:12:22.862Z,95610.6
2022-10-14T06:13:26.132Z,95613.5
2022-10-14T06:14:28.346Z,95611.7
2022-10-14T06:15:30.633Z,95613.4
2022-10-14T06:16:32.880Z,95615.2
2022-10-14T06:17:34.808Z,95612.7
2022-10-14T06:18:37.303Z,95611.7
2022-10-14T06:19:39.775Z,95613.4
2022-10-14T06:20:42.263Z,95608.8
2022-10-14T06:21:44.749Z,95607.6
2022-10-14T06:22:47.240Z,95609
2022-10-14T06:23:49.434Z,95605.3
2022-10-14T06:24:51.658Z,95602.5
2022-10-14T06:25:53.859Z,95599.3
2022-10-14T06:26:56.072Z,95598.9
2022-10-14T06:27:58.546Z,95600.1
2022-10-14T06:29:00.757Z,95596.7
2022-10-14T06:30:02.777Z,95594.7
2022-10-14T06:31:05.336Z,95600.7
2022-10-14T06:32:07.833Z,95600
2022-10-14T06:33:10.312Z,95605
2022-10-14T06:34:12.795Z,95606.1
2022-10-14T06:35:14.996Z,95606.8
2022-10-14T06:36:17.480Z,95609.5
2022-10-14T06:37:19.966Z,95610.9
2022-10-14T06:38:21.590Z,95610.5
2022-10-14T06:39:23.781Z,95611.2
2022-10-14T06:40:26.476Z,95609.6
2022-10-14T06:41:28.688Z,95614.4
2022-10-14T06:42:31.178Z,95615.8
2022-10-14T06:43:33.656Z,95613.1
2022-10-14T06:44:36.138Z,95616.6
2022-10-14T06:45:38.636Z,95617
2022-10-14T06:46:40.893Z,95617.6
2022-10-14T06:47:43.117Z,95615.1
2022-10-14T06:49:50.061Z,95610.6
2022-10-14T06:50:52.531Z,95612.7
2022-10-14T06:51:54.734Z,95610.9
2022-10-14T06:52:57.213Z,95611.4
2022-10-14T06:53:59.409Z,95609.5
2022-10-14T06:55:01.896Z,95610.2
2022-10-14T06:56:04.380Z,95604.8
2022-10-14T06:57:06.315Z,95606.6
2022-10-14T06:58:08.836Z,95603.4
2022-10-14T06:59:10.762Z,95605
2022-10-14T07:00:13.260Z,95604.6
2022-10-14T07:01:15.945Z,95605.1
2022-10-14T07:02:18.636Z,95610.7
2022-10-14T07:03:21.568Z,95598.3
2022-10-14T07:04:23.500Z,95607.7
2022-10-14T07:05:26.004Z,95602.8
2022-10-14T07:06:27.695Z,95603.9
2022-10-14T07:07:30.197Z,95602.8
2022-10-14T07:08:32.673Z,95601.3
2022-10-14T07:09:35.196Z,95595.5
2022-10-14T07:10:37.413Z,95595.4
2022-10-14T07:11:39.640Z,95587.1
2022-10-14T07:12:41.620Z,95589.7
2022-10-14T07:13:44.122Z,95580.9
2022-10-14T07:14:46.600Z,95579
2022-10-14T07:15:49.103Z,95574.4
2022-10-14T07:16:51.016Z,95580.7
2022-10-14T07:17:53.563Z,95584.5
2022-10-14T07:18:56.054Z,95577.7
2022-10-14T07:19:58.552Z,95581.1
2022-10-14T07:21:00.792Z,95582
2022-10-14T07:22:03.061Z,95576.3
2022-10-14T07:23:04.988Z,95589.9
2022-10-14T07:24:07.473Z,95583.9
2022-10-14T07:25:09.651Z,95582.8
2022-10-14T07:26:11.606Z,95588.2
2022-10-14T07:27:14.077Z,95591.2
2022-10-14T07:28:16.036Z,95594.3
2022-10-14T07:29:18.641Z,95590.8
2022-10-14T07:30:21.116Z,95588.2
2022-10-14T07:31:23.043Z,95589.5
2022-10-14T07:32:25.260Z,95580.5
2022-10-14T07:33:27.847Z,95587.7
2022-10-14T07:34:30.170Z,95590.8
2022-10-14T07:35:32.647Z,95591
2022-10-14T07:36:35.130Z,95591.2
2022-10-14T07:37:37.616Z,95592.4
2022-10-14T07:38:40.104Z,95592.8
2022-10-14T07:39:42.291Z,95594.3
2022-10-14T07:40:44.225Z,95597.9
2022-10-14T07:41:46.491Z,95601.5
2022-10-14T07:42:48.422Z,95599.2
2022-10-14T07:43:50.350Z,95598.9
2022-10-14T07:44:52.852Z,95595.7
2022-10-14T07:45:54.764Z,95596.1
2022-10-14T07:46:57.254Z,95598.9
2022-10-14T07:47:59.193Z,95601
2022-10-14T07:49:01.439Z,95600.7
2022-10-14T07:50:03.965Z,95601.7
2022-10-14T07:51:06.444Z,95602.5
2022-10-14T07:52:08.693Z,95599.1
2022-10-14T07:53:11.195Z,95596.8
2022-10-14T07:54:13.373Z,95594.2
2022-10-14T07:55:15.580Z,95598.2
2022-10-14T07:56:18.075Z,95596.3
2022-10-14T07:57:21.747Z,95599
2022-10-14T07:58:24.396Z,95597.5
2022-10-14T07:59:27.162Z,95594.2
2022-10-14T08:00:29.690Z,95597.5
2022-10-14T08:01:32.411Z,95595.8
2022-10-14T08:02:35.167Z,95600.4
2022-10-14T08:03:37.370Z,95598.7
2022-10-14T08:04:39.643Z,95599.7
2022-10-14T08:05:42.136Z,95601.3
2022-10-14T08:06:44.610Z,95596.1
2022-10-14T08:07:46.796Z,95596.1
2022-10-14T08:08:48.743Z,95595.5
2022-10-14T08:09:51.278Z,95591.3
2022-10-14T08:10:53.475Z,95590.2
2022-10-14T08:11:55.675Z,95589.3
2022-10-14T08:12:57.606Z,95584.2
2022-10-14T08:13:59.804Z,95589.3
2022-10-14T08:15:02.044Z,95589.4
2022-10-14T08:16:04.546Z,95590.8
2022-10-14T08:17:06.667Z,95592.2
2022-10-14T08:18:08.799Z,95587.9
2022-10-14T08:20:16.400Z,95588.4
2022-10-14T08:21:18.794Z,95585.4
2022-10-14T08:22:22.606Z,95585.5
2022-10-14T08:23:25.685Z,95583.9
2022-10-14T08:24:28.147Z,95579
2022-10-14T08:25:30.622Z,95582
2022-10-14T08:26:33.100Z,95583.6
2022-10-14T08:27:35.601Z,95585.2
2022-10-14T08:28:37.742Z,95580.8
2022-10-14T08:29:39.998Z,95590.8
2022-10-14T08:30:41.924Z,95587.8
2022-10-14T08:31:44.153Z,95585.9
2022-10-14T08:32:46.346Z,95591.6
2022-10-14T08:33:48.844Z,95590.1
2022-10-14T08:34:51.066Z,95585.9
2022-10-14T08:35:56.026Z,95592.5
2022-10-14T08:36:58.525Z,95591.4
2022-10-14T08:38:01.027Z,95591.6
2022-10-14T08:39:03.501Z,95590.5
2022-10-14T08:40:06.070Z,95587.7
2022-10-14T08:41:08.271Z,95595.3
2022-10-14T08:42:10.756Z,95594
2022-10-14T08:43:13.231Z,95594.7
2022-10-14T08:44:15.710Z,95588.3
2022-10-14T08:45:17.931Z,95596.1
2022-10-14T08:46:20.171Z,95589.4
2022-10-14T08:47:22.128Z,95589.9
2022-10-14T08:48:24.614Z,95588.2
2022-10-14T08:49:26.835Z,95583.2
2022-10-14T08:50:29.321Z,95584.9
2022-10-14T08:51:31.869Z,95586.3
2022-10-14T08:53:39.068Z,95584.8
2022-10-14T08:54:40.992Z,95581
2022-10-14T08:55:42.616Z,95573.8
2022-10-14T08:56:44.817Z,95579.3
2022-10-14T08:57:47.287Z,95572.4
2022-10-14T08:58:49.758Z,95574.4
2022-10-14T08:59:52.234Z,95575.6
2022-10-14T09:00:54.436Z,95577.2
2022-10-14T09:01:56.623Z,95577.7
2022-10-14T09:02:58.741Z,95582.4
2022-10-14T09:04:00.946Z,95576
2022-10-14T09:05:03.481Z,95579.6
2022-10-14T09:06:05.563Z,95581
2022-10-14T09:07:08.222Z,95583.3
2022-10-14T09:08:10.437Z,95584
2022-10-14T09:09:12.373Z,95584.2
2022-10-14T09:10:14.296Z,95586.1
2022-10-14T09:11:16.784Z,95585.3
2022-10-14T09:12:19.979Z,95586.3
2022-10-14T09:13:22.838Z,95589.9
2022-10-14T09:14:25.027Z,95584.4
2022-10-14T09:15:26.969Z,95586.6
2022-10-14T09:16:29.177Z,95591
2022-10-14T09:18:36.706Z,95581.8
2022-10-14T09:19:39.176Z,95585.4
2022-10-14T09:20:41.117Z,95581.9
2022-10-14T09:22:48.290Z,95578.2
2022-10-14T09:23:50.305Z,95573.9
2022-10-14T09:24:52.202Z,95572.6
2022-10-14T09:25:54.683Z,95571.7
2022-10-14T09:26:58.237Z,95568.6
2022-10-14T09:28:00.448Z,95566.1
2022-10-14T09:29:02.990Z,95566.8
2022-10-14T09:30:05.306Z,95568.9
2022-10-14T09:31:07.496Z,95574.3
2022-10-14T09:32:09.403Z,95566.5
2022-10-14T09:33:11.873Z,95573.1
2022-10-14T09:34:14.104Z,95573
2022-10-14T09:35:16.309Z,95575.4
2022-10-14T09:36:18.803Z,95568.3
2022-10-14T09:37:22.321Z,95574
2022-10-14T09:38:25.733Z,95567.4
2022-10-14T09:39:27.662Z,95564.4
2022-10-14T09:40:29.864Z,95559.9
2022-10-14T09:41:30.994Z,95565.6
2022-10-14T09:42:32.929Z,95560.9
2022-10-14T09:43:35.688Z,95558.2
2022-10-14T09:44:38.243Z,95553.1
2022-10-14T09:45:40.532Z,95559.5
2022-10-14T09:46:43.106Z,95560.7
2022-10-14T09:47:45.330Z,95557.4
2022-10-14T09:48:47.538Z,95558.2
2022-10-14T09:49:50.046Z,95552.1
2022-10-14T09:50:52.543Z,95554.2
2022-10-14T09:51:54.748Z,95553.7
2022-10-14T09:52:57.260Z,95555.2
2022-10-14T09:54:00.055Z,95554.5
2022-10-14T09:55:02.175Z,95555.8
2022-10-14T09:56:04.371Z,95552.1
2022-10-14T09:57:06.511Z,95551.6
2022-10-14T09:58:08.980Z,95548.2
2022-10-14T09:59:11.464Z,95551
2022-10-14T10:00:13.660Z,95551.3
2022-10-14T10:01:15.887Z,95553.4
2022-10-14T10:02:17.804Z,95550.3
2022-10-14T10:03:20.009Z,95552.3
2022-10-14T10:04:22.211Z,95548.8
2022-10-14T10:05:24.412Z,95549.4
2022-10-14T10:06:26.094Z,95553.4
2022-10-14T10:07:28.302Z,95546.9
2022-10-14T10:08:30.772Z,95550
2022-10-14T10:09:33.334Z,95550.5
2022-10-14T10:10:35.835Z,95551.1
2022-10-14T10:11:38.061Z,95547.2
2022-10-14T10:12:40.033Z,95551.9
2022-10-14T10:13:42.869Z,95550
2022-10-14T10:14:45.082Z,95550.6
2022-10-14T10:15:47.284Z,95545.1
2022-10-14T10:17:55.841Z,95545.5
2022-10-14T10:18:58.051Z,95539.1
2022-10-14T10:20:00.517Z,95544.3
2022-10-14T10:21:02.762Z,95544.4
2022-10-14T10:22:05.230Z,95539.5
2022-10-14T10:23:07.704Z,95541.6
2022-10-14T10:24:09.878Z,95539.3
2022-10-14T10:25:12.428Z,95534.3
2022-10-14T10:26:14.916Z,95541.3
2022-10-14T10:27:17.388Z,95539
2022-10-14T10:28:19.785Z,95538.8
2022-10-14T10:29:22.178Z,95532.2
2022-10-14T10:30:24.678Z,95534.9
2022-10-14T10:31:27.457Z,95535.3
2022-10-14T10:32:29.958Z,95526.8
2022-10-14T10:33:32.439Z,95526.8
2022-10-14T10:34:34.932Z,95524.4
2022-10-14T10:35:37.414Z,95525.4
2022-10-14T10:36:39.636Z,95523.4
2022-10-14T10:37:41.543Z,95519.2
2022-10-14T10:38:43.741Z,95519.6
2022-10-14T10:39:46.251Z,95518.1
2022-10-14T10:40:48.917Z,95518.6
2022-10-14T10:41:51.411Z,95521.9
2022-10-14T10:42:53.337Z,95518.8
2022-10-14T10:43:55.622Z,95519
2022-10-14T10:44:58.138Z,95514.9
2022-10-14T10:46:00.166Z,95520
2022-10-14T10:47:02.432Z,95519.8
2022-10-14T10:48:04.691Z,95516
2022-10-14T10:49:07.221Z,95511.8
2022-10-14T10:50:09.475Z,95511.9
2022-10-14T10:51:11.455Z,95508.2
2022-10-14T10:53:18.430Z,95507.4
2022-10-14T10:54:20.967Z,95509.8
2022-10-14T10:55:23.259Z,95506.2
2022-10-14T10:56:25.654Z,95507
2022-10-14T10:57:28.201Z,95507.9
2022-10-14T10:58:30.471Z,95508.9
2022-10-14T10:59:32.447Z,95506.3
2022-10-14T11:00:34.703Z,95509.2
2022-10-14T11:01:37.614Z,95507.4
2022-10-14T11:02:40.294Z,95504.4
2022-10-14T11:03:42.550Z,95506
2022-10-14T11:04:44.536Z,95503.1
2022-10-14T11:05:46.486Z,95506.4
2022-10-14T11:06:49.020Z,95506.6
2022-10-14T11:07:51.340Z,95498.5
2022-10-14T11:08:53.608Z,95502.5
2022-10-14T11:09:56.236Z,95497
2022-10-14T11:10:58.204Z,95495.2
2022-10-14T11:12:00.831Z,95491.2
2022-10-14T11:13:03.442Z,95492.5
2022-10-14T11:14:05.694Z,95491.8
2022-10-14T11:15:07.767Z,95492.5
2022-10-14T11:16:10.187Z,95488.6
2022-10-14T11:17:12.543Z,95488.3
2022-10-14T11:18:15.183Z,95483.9
2022-10-14T11:19:17.145Z,95483.3
2022-10-14T11:20:19.667Z,95481.6
2022-10-14T11:21:22.225Z,95478.6
2022-10-14T11:22:25.666Z,95478.5
2022-10-14T11:23:28.283Z,95480.3
2022-10-14T11:24:30.819Z,95480.9
2022-10-14T11:25:33.084Z,95481.6
2022-10-14T11:26:36.790Z,95480.3
2022-10-14T11:27:39.439Z,95478.1
2022-10-14T11:28:42.052Z,95475.8
2022-10-14T11:29:44.636Z,95475.9
2022-10-14T11:30:47.112Z,95471.7
2022-10-14T11:31:49.590Z,95468.4
2022-10-14T11:32:51.812Z,95466
2022-10-14T11:33:54.284Z,95464.7
2022-10-14T11:34:56.767Z,95462.7
2022-10-14T11:35:58.689Z,95457.7
2022-10-14T11:37:00.877Z,95451.3
2022-10-14T11:38:03.354Z,95448.3
2022-10-14T11:39:05.573Z,95449.5
2022-10-14T11:40:08.047Z,95451.8
2022-10-14T11:41:09.960Z,95449.9
2022-10-14T11:42:12.432Z,95451.9
2022-10-14T11:43:15.086Z,95444.7
2022-10-14T11:44:17.586Z,95449.2
2022-10-14T11:46:24.787Z,95447.7
2022-10-14T11:47:27.234Z,95439.9
2022-10-14T11:48:29.444Z,95445.1
2022-10-14T11:49:31.368Z,95441.9
2022-10-14T11:50:33.294Z,95443
2022-10-14T11:51:37.218Z,95441.9
2022-10-14T11:52:39.693Z,95445.6
2022-10-14T11:53:41.913Z,95443
2022-10-14T11:54:44.174Z,95437.9
2022-10-14T11:55:46.407Z,95439.3
2022-10-14T11:56:48.609Z,95440.7
2022-10-14T11:57:50.799Z,95436.3
2022-10-14T11:58:53.348Z,95439.9
2022-10-14T11:59:55.857Z,95434
2022-10-14T12:00:57.791Z,95432.7
2022-10-14T12:01:59.733Z,95434
2022-10-14T12:03:02.615Z,95426.2
2022-10-14T12:04:05.219Z,95423.8
2022-10-14T12:05:07.149Z,95424.2
2022-10-14T12:06:09.637Z,95428.3
2022-10-14T12:07:11.287Z,95427.2
2022-10-14T12:08:13.771Z,95427.8
2022-10-14T12:09:16.471Z,95428.7
2022-10-14T12:10:18.428Z,95426.8
2022-10-14T12:11:20.629Z,95428.5
2022-10-14T12:12:24.782Z,95429.5
2022-10-14T12:13:27.603Z,95429.1
2022-10-14T12:14:30.157Z,95426.5
2022-10-14T12:15:32.565Z,95429.6
2022-10-14T12:16:34.788Z,95431.9
2022-10-14T12:17:37.276Z,95430.5
2022-10-14T12:18:38.979Z,95431.1
2022-10-14T12:19:41.199Z,95427
2022-10-14T12:20:43.698Z,95420.5
2022-10-14T12:22:50.607Z,95421.1
2022-10-14T12:23:53.345Z,95416.1
2022-10-14T12:24:55.831Z,95418.6
2022-10-14T12:25:58.330Z,95417.4
2022-10-14T12:27:00.245Z,95415.6
2022-10-14T12:28:02.452Z,95413.9
2022-10-14T12:29:05.371Z,95416.8
2022-10-14T12:30:08.064Z,95412.3
2022-10-14T12:31:10.557Z,95417.8
2022-10-14T12:32:12.760Z,95411.3
2022-10-14T12:34:20.237Z,95412
2022-10-14T12:35:22.716Z,95408.8
2022-10-14T12:36:25.455Z,95406.4
2022-10-14T12:38:32.950Z,95402.3
2022-10-14T12:39:35.443Z,95400.4
2022-10-14T12:40:37.937Z,95402
2022-10-14T12:41:40.155Z,95399.2
2022-10-14T12:42:42.078Z,95398.5
2022-10-14T12:43:45.699Z,95396.9
2022-10-14T12:44:51.016Z,95400.3
2022-10-14T12:45:53.290Z,95397
2022-10-14T12:46:55.794Z,95396.9
2022-10-14T12:47:58.290Z,95397.5
2022-10-14T12:49:00.761Z,95399.5
2022-10-14T12:50:02.968Z,95401.9
2022-10-14T12:51:04.623Z,95401.8
2022-10-14T12:52:07.111Z,95400
2022-10-14T12:53:09.309Z,95394.2